Time;durP1;ratioP1;P1;durP2;ratioP2;P2;SDS_P1;SDS_P2;PMS_P1;PMS_P2;Temp;Humidity;BMP_temperature;BMP_pressure;BME280_temperature;BME280_humidity;BME280_pressure;Samples;Min_cycle;Max_cycle;Signal;HPM_P1;HPM_P2
2021/12/21 00:00:50;;;;;;;22.13;10.73;;;-1.50;99.90;;;;;;5076332;28;20302;-83
2021/12/21 00:03:18;;;;;;;21.93;10.10;;;-1.50;99.90;;;;;;5087697;28;20227;-84
2021/12/21 00:05:46;;;;;;;23.30;10.60;;;-1.50;99.90;;;;;;5105134;28;20566;-81
2021/12/21 00:08:13;;;;;;;34.07;11.77;;;-1.50;99.90;;;;;;5084699;28;20207;-81
2021/12/21 00:10:44;;;;;;;28.27;10.57;;;-1.50;99.90;;;;;;5110244;28;20203;-82
2021/12/21 00:13:37;;;;;;;21.17;10.90;;;-1.50;99.90;;;;;;5087745;28;20283;-82
2021/12/21 00:16:16;;;;;;;36.60;10.77;;;-1.50;99.90;;;;;;5083716;28;20270;-83
2021/12/21 00:23:51;;;;;;;21.40;10.17;;;-1.50;99.90;;;;;;5099549;28;20221;-81
2021/12/21 00:26:22;;;;;;;26.67;9.83;;;-1.60;99.90;;;;;;5093260;28;20204;-84
2021/12/21 00:28:57;;;;;;;21.20;9.77;;;-1.60;99.90;;;;;;5104566;28;20322;-82
2021/12/21 00:31:26;;;;;;;19.80;9.07;;;-1.60;99.90;;;;;;5073454;28;20219;-82
2021/12/21 00:33:54;;;;;;;27.97;10.13;;;-1.60;99.90;;;;;;5083972;28;20216;-82
2021/12/21 00:36:24;;;;;;;18.87;9.43;;;-1.60;99.90;;;;;;5093394;28;20302;-82
2021/12/21 00:38:53;;;;;;;20.57;10.50;;;-1.70;99.90;;;;;;5083999;28;20208;-82
2021/12/21 00:41:20;;;;;;;30.27;11.07;;;-1.60;99.90;;;;;;5085936;28;20257;-82
2021/12/21 00:43:48;;;;;;;30.77;10.90;;;-1.60;99.90;;;;;;5109758;28;20263;-83
2021/12/21 00:46:16;;;;;;;22.33;10.10;;;-1.60;99.90;;;;;;5104070;28;20203;-83
2021/12/21 00:48:53;;;;;;;20.40;9.80;;;-1.60;99.90;;;;;;5083952;28;20200;-82
2021/12/21 00:51:23;;;;;;;21.43;9.33;;;-1.60;99.90;;;;;;5109165;28;20286;-83
2021/12/21 00:53:51;;;;;;;29.20;10.23;;;-1.70;99.90;;;;;;5107113;28;20242;-82
2021/12/21 00:56:22;;;;;;;43.27;11.87;;;-1.70;99.90;;;;;;5100081;28;20211;-82
2021/12/21 00:58:49;;;;;;;34.53;11.27;;;-1.70;99.90;;;;;;5087233;28;20707;-82
2021/12/21 01:01:16;;;;;;;30.50;10.67;;;-1.70;99.90;;;;;;5105947;28;20269;-82
2021/12/21 01:03:47;;;;;;;29.70;10.67;;;-1.70;99.90;;;;;;5083666;28;20228;-81
2021/12/21 01:06:37;;;;;;;26.17;10.57;;;-1.60;99.90;;;;;;5107716;28;20227;-82
2021/12/21 01:09:32;;;;;;;28.60;9.77;;;-1.60;99.90;;;;;;5106217;28;20291;-82
2021/12/21 01:11:59;;;;;;;22.17;10.37;;;-1.70;99.90;;;;;;5093338;28;20290;-81
2021/12/21 01:17:10;;;;;;;25.53;10.33;;;-1.70;99.90;;;;;;5098387;28;20243;-83
2021/12/21 01:19:43;;;;;;;28.53;10.30;;;-1.70;99.90;;;;;;5094203;28;20765;-82
2021/12/21 01:25:24;;;;;;;29.43;10.70;;;-1.70;99.90;;;;;;5112128;28;20774;-82
2021/12/21 01:27:37;;;;;;;25.30;9.93;;;-1.80;99.90;;;;;;5111274;28;20246;-82
2021/12/21 01:30:25;;;;;;;29.30;10.87;;;-1.80;99.90;;;;;;5108463;28;20199;-82
2021/12/21 01:33:45;;;;;;;31.47;10.60;;;-1.80;99.90;;;;;;5124452;28;20247;-81
2021/12/21 01:35:46;;;;;;;23.83;9.97;;;-1.70;99.90;;;;;;5120036;28;20207;-81
2021/12/21 01:38:27;;;;;;;26.17;9.73;;;-1.80;99.90;;;;;;5107083;28;20252;-81
2021/12/21 01:41:09;;;;;;;22.37;10.63;;;-1.80;99.90;;;;;;5108004;28;20222;-82
2021/12/21 01:43:48;;;;;;;31.00;8.77;;;-1.90;99.90;;;;;;5107315;28;20210;-83
2021/12/21 01:51:46;;;;;;;15.40;9.07;;;-1.90;99.90;;;;;;5086361;28;20213;-81
2021/12/21 01:54:13;;;;;;;17.03;8.80;;;-1.90;99.90;;;;;;5113078;28;20659;-82
2021/12/21 01:56:43;;;;;;;23.00;8.77;;;-1.90;99.90;;;;;;5097183;28;20298;-82
2021/12/21 01:59:10;;;;;;;18.53;8.53;;;-1.90;99.90;;;;;;5088324;28;20255;-82
2021/12/21 02:01:36;;;;;;;22.60;10.40;;;-2.00;99.90;;;;;;5088936;28;20259;-82
2021/12/21 02:04:04;;;;;;;26.20;8.77;;;-2.00;99.90;;;;;;5090432;28;20562;-82
2021/12/21 02:06:31;;;;;;;22.67;9.13;;;-2.00;99.90;;;;;;5090400;28;20243;-83
2021/12/21 02:09:00;;;;;;;18.13;9.50;;;-2.00;99.90;;;;;;5091750;28;20599;-81
2021/12/21 02:11:28;;;;;;;30.10;9.80;;;-2.10;99.90;;;;;;5092156;28;20295;-82
2021/12/21 02:13:54;;;;;;;27.67;8.93;;;-2.10;99.90;;;;;;5089919;28;20277;-83
2021/12/21 02:16:34;;;;;;;24.17;9.30;;;-2.10;99.90;;;;;;5061505;28;20518;-82
2021/12/21 02:19:30;;;;;;;26.90;10.47;;;-2.10;99.90;;;;;;5078604;28;20208;-81
2021/12/21 02:22:14;;;;;;;17.00;8.83;;;-2.10;99.90;;;;;;5083411;28;20242;-82
2021/12/21 02:24:56;;;;;;;29.63;10.47;;;-2.10;99.90;;;;;;5081319;28;20211;-81
2021/12/21 02:27:41;;;;;;;26.33;10.57;;;-2.10;99.90;;;;;;5079262;28;20698;-80
2021/12/21 02:30:14;;;;;;;26.83;9.83;;;-2.10;99.90;;;;;;5084828;28;20198;-79
2021/12/21 02:32:41;;;;;;;23.60;10.07;;;-2.10;99.90;;;;;;5083375;28;20231;-80
2021/12/21 02:35:09;;;;;;;26.73;10.30;;;-2.10;99.90;;;;;;5084500;28;20220;-81
2021/12/21 02:37:36;;;;;;;27.10;11.27;;;-2.10;99.90;;;;;;5087869;28;20660;-81
2021/12/21 02:40:07;;;;;;;33.50;11.40;;;-2.10;99.90;;;;;;5091608;28;20207;-81
2021/12/21 02:42:34;;;;;;;25.30;10.90;;;-2.10;99.90;;;;;;5087150;28;20215;-81
2021/12/21 02:45:00;;;;;;;39.03;11.87;;;-2.10;99.90;;;;;;5088474;28;20207;-83
2021/12/21 02:47:27;;;;;;;31.63;11.43;;;-2.10;99.90;;;;;;5090375;28;20243;-82
2021/12/21 02:49:54;;;;;;;22.00;9.33;;;-2.10;99.90;;;;;;5086483;28;20217;-83
2021/12/21 02:52:21;;;;;;;24.07;9.73;;;-2.10;99.90;;;;;;5087133;28;20261;-81
2021/12/21 02:54:48;;;;;;;21.40;8.93;;;-2.10;99.90;;;;;;5090612;28;20235;-81
2021/12/21 02:57:15;;;;;;;19.10;8.73;;;-2.10;99.90;;;;;;5096176;28;20215;-81
2021/12/21 02:59:41;;;;;;;19.87;8.10;;;-2.10;99.90;;;;;;5098749;28;20332;-81
2021/12/21 03:02:08;;;;;;;24.13;8.77;;;-2.10;99.90;;;;;;5092017;28;20260;-81
2021/12/21 03:04:35;;;;;;;20.33;9.07;;;-2.10;99.90;;;;;;5088368;28;20246;-80
2021/12/21 03:09:39;;;;;;;20.10;8.93;;;-2.20;99.90;;;;;;5082752;28;20540;-80
2021/12/21 03:14:37;;;;;;;22.20;8.50;;;-2.20;99.90;;;;;;5086143;28;20285;-81
2021/12/21 03:17:05;;;;;;;20.43;8.77;;;-2.20;99.90;;;;;;5067780;28;20313;-82
2021/12/21 03:19:32;;;;;;;19.53;8.87;;;-2.20;99.90;;;;;;5063330;28;20753;-79
2021/12/21 03:21:59;;;;;;;24.93;8.93;;;-2.30;99.90;;;;;;5066918;28;20240;-80
2021/12/21 03:24:25;;;;;;;17.73;8.87;;;-2.30;99.90;;;;;;5069197;28;20253;-80
2021/12/21 03:26:52;;;;;;;24.30;8.57;;;-2.30;99.90;;;;;;5064425;28;20210;-80
2021/12/21 03:29:19;;;;;;;21.20;8.80;;;-2.30;99.90;;;;;;5076203;28;20637;-81
2021/12/21 03:31:46;;;;;;;24.23;8.93;;;-2.40;99.90;;;;;;5076760;28;20212;-81
2021/12/21 03:34:13;;;;;;;21.23;9.30;;;-2.40;99.90;;;;;;5065738;28;20257;-81
2021/12/21 03:36:41;;;;;;;20.00;9.33;;;-2.40;99.90;;;;;;5059211;28;20332;-81
2021/12/21 03:39:15;;;;;;;19.20;8.93;;;-2.40;99.90;;;;;;5081463;28;20200;-79
2021/12/21 03:41:46;;;;;;;19.40;8.77;;;-2.50;99.90;;;;;;5065138;28;20968;-81
2021/12/21 03:44:16;;;;;;;17.83;8.13;;;-2.50;99.90;;;;;;5076883;28;20200;-81
2021/12/21 03:46:50;;;;;;;19.73;8.63;;;-2.50;99.90;;;;;;5064976;28;20211;-81
2021/12/21 03:52:04;;;;;;;17.03;8.63;;;-2.50;99.90;;;;;;5080589;28;20714;-81
2021/12/21 03:54:32;;;;;;;19.30;8.13;;;-2.50;99.90;;;;;;5084038;28;20238;-81
2021/12/21 03:57:00;;;;;;;20.50;8.77;;;-2.60;99.90;;;;;;5060183;28;20585;-81
2021/12/21 03:59:28;;;;;;;22.93;9.07;;;-2.60;99.90;;;;;;5074324;28;20233;-82
2021/12/21 04:01:55;;;;;;;17.63;9.20;;;-2.60;99.90;;;;;;5078120;28;20673;-82
2021/12/21 04:04:23;;;;;;;14.93;7.83;;;-2.60;99.90;;;;;;5066440;28;20669;-81
2021/12/21 04:06:51;;;;;;;14.37;8.20;;;-2.70;99.90;;;;;;5081290;28;20331;-80
2021/12/21 04:09:18;;;;;;;19.97;8.47;;;-2.70;99.90;;;;;;5078056;28;20291;-80
2021/12/21 04:11:45;;;;;;;13.67;7.83;;;-2.60;99.90;;;;;;5076324;28;20303;-80
2021/12/21 04:14:13;;;;;;;18.97;7.90;;;-2.70;99.90;;;;;;5081011;28;20590;-81
2021/12/21 04:16:41;;;;;;;18.10;8.33;;;-2.70;99.90;;;;;;5079900;28;20292;-80
2021/12/21 04:19:08;;;;;;;15.43;8.00;;;-2.80;99.90;;;;;;5075315;28;20707;-81
2021/12/21 04:21:35;;;;;;;17.23;8.73;;;-2.70;99.90;;;;;;5078151;28;20231;-80
2021/12/21 04:24:02;;;;;;;22.43;9.13;;;-2.80;99.90;;;;;;5078758;28;20200;-80
2021/12/21 04:26:29;;;;;;;31.50;9.50;;;-2.80;99.90;;;;;;5081993;28;20206;-81
2021/12/21 04:28:56;;;;;;;23.53;9.07;;;-2.80;99.90;;;;;;5083500;28;20204;-81
2021/12/21 04:31:24;;;;;;;26.60;9.20;;;-2.80;99.90;;;;;;5073799;28;20755;-82
2021/12/21 04:33:51;;;;;;;23.40;9.53;;;-2.80;99.90;;;;;;5079034;28;20253;-79
2021/12/21 04:36:19;;;;;;;14.37;8.80;;;-2.80;99.90;;;;;;5081466;28;20563;-81
2021/12/21 04:38:49;;;;;;;25.47;9.30;;;-2.80;99.90;;;;;;5079841;28;20651;-80
2021/12/21 04:41:23;;;;;;;19.77;9.00;;;-2.90;99.90;;;;;;5081976;28;20231;-81
2021/12/21 04:43:52;;;;;;;18.63;8.43;;;-2.80;99.90;;;;;;5080034;28;20249;-80
2021/12/21 04:46:19;;;;;;;22.53;9.17;;;-2.90;99.90;;;;;;5075178;28;20208;-81
2021/12/21 04:48:47;;;;;;;21.93;8.73;;;-2.90;99.90;;;;;;5078988;28;20970;-81
2021/12/21 04:51:14;;;;;;;17.27;9.13;;;-2.90;99.90;;;;;;5077419;28;20264;-81
2021/12/21 04:53:41;;;;;;;22.13;9.20;;;-2.80;99.90;;;;;;5078261;28;20690;-79
2021/12/21 04:56:08;;;;;;;15.50;8.47;;;-2.90;99.90;;;;;;5078894;28;20409;-80
2021/12/21 04:58:35;;;;;;;22.40;9.17;;;-2.90;99.90;;;;;;5082597;28;20656;-79
2021/12/21 05:01:03;;;;;;;22.10;8.67;;;-2.90;99.90;;;;;;5101424;28;20436;-80
2021/12/21 05:03:30;;;;;;;25.30;9.80;;;-2.90;99.90;;;;;;5080031;28;20222;-79
2021/12/21 05:05:59;;;;;;;15.60;8.63;;;-3.00;99.90;;;;;;5099018;28;20999;-81
2021/12/21 05:08:31;;;;;;;24.43;8.47;;;-2.90;99.90;;;;;;5096853;28;20242;-80
2021/12/21 05:11:02;;;;;;;24.63;8.90;;;-3.00;99.90;;;;;;5073905;28;20203;-80
2021/12/21 05:13:37;;;;;;;24.67;9.00;;;-3.00;99.90;;;;;;5090584;28;20214;-81
2021/12/21 05:16:06;;;;;;;18.40;8.93;;;-3.00;99.90;;;;;;5102865;28;20198;-80
2021/12/21 05:18:35;;;;;;;21.87;9.67;;;-3.00;99.90;;;;;;5102471;28;20214;-79
2021/12/21 05:21:05;;;;;;;27.77;10.37;;;-3.00;99.90;;;;;;5098388;28;20338;-80
2021/12/21 05:23:32;;;;;;;27.57;10.50;;;-3.00;99.90;;;;;;5086319;28;20663;-80
2021/12/21 05:25:59;;;;;;;23.03;11.03;;;-3.00;99.90;;;;;;5084499;28;20599;-81
2021/12/21 05:28:26;;;;;;;27.23;12.40;;;-3.00;99.90;;;;;;5102130;28;20216;-81
2021/12/21 05:30:53;;;;;;;29.83;12.73;;;-3.00;99.90;;;;;;5085437;28;20242;-80
2021/12/21 05:33:20;;;;;;;30.47;13.80;;;-3.00;99.90;;;;;;5081074;28;20213;-80
2021/12/21 05:35:48;;;;;;;30.80;12.07;;;-3.00;99.90;;;;;;5084288;28;20220;-80
2021/12/21 05:38:19;;;;;;;29.13;13.10;;;-3.00;99.90;;;;;;5085786;28;20287;-80
2021/12/21 05:40:47;;;;;;;31.27;13.27;;;-3.00;99.90;;;;;;5075521;28;20696;-80
2021/12/21 05:43:14;;;;;;;37.50;12.60;;;-3.00;99.90;;;;;;5107526;28;20215;-81
2021/12/21 05:45:41;;;;;;;42.80;15.27;;;-2.90;99.90;;;;;;5106224;28;20667;-80
2021/12/21 05:48:08;;;;;;;48.70;15.97;;;-3.00;99.90;;;;;;5105190;28;20380;-81
2021/12/21 05:50:36;;;;;;;48.93;15.13;;;-2.90;99.90;;;;;;5095990;28;20216;-81
2021/12/21 05:53:03;;;;;;;44.73;14.80;;;-2.80;99.90;;;;;;5086080;28;20208;-80
2021/12/21 05:55:31;;;;;;;64.97;16.00;;;-2.80;99.90;;;;;;5097466;28;20203;-80
2021/12/21 05:57:58;;;;;;;40.47;13.70;;;-2.80;99.90;;;;;;5111252;28;20291;-81
2021/12/21 06:00:28;;;;;;;93.20;17.40;;;-2.80;99.90;;;;;;5077558;28;20199;-83
2021/12/21 06:02:55;;;;;;;67.40;16.87;;;-2.80;99.90;;;;;;5084707;28;20223;-78
2021/12/21 06:05:24;;;;;;;52.50;15.43;;;-2.70;99.90;;;;;;5073373;28;20299;-80
2021/12/21 06:07:53;;;;;;;101.70;17.87;;;-2.70;99.90;;;;;;5104651;28;20684;-80
2021/12/21 06:10:27;;;;;;;69.67;17.07;;;-2.70;99.90;;;;;;5078373;28;20292;-80
2021/12/21 06:26:16;;;;;;;50.73;16.17;;;-2.70;99.90;;;;;;5126939;28;20218;-79
2021/12/21 06:28:46;;;;;;;58.90;15.00;;;-2.70;99.90;;;;;;5106760;28;20207;-80
2021/12/21 06:31:14;;;;;;;47.40;14.77;;;-2.70;99.90;;;;;;5114715;28;20208;-80
2021/12/21 06:33:41;;;;;;;107.17;17.93;;;-2.70;99.90;;;;;;5117347;28;20554;-80
2021/12/21 06:36:09;;;;;;;47.00;15.27;;;-2.70;99.90;;;;;;5113645;28;20208;-81
2021/12/21 06:38:37;;;;;;;34.63;15.20;;;-2.70;99.90;;;;;;5101927;28;20290;-82
2021/12/21 06:41:07;;;;;;;40.80;15.93;;;-2.70;99.90;;;;;;5101293;28;20294;-80
2021/12/21 06:43:34;;;;;;;33.90;13.60;;;-2.80;99.90;;;;;;5084985;28;20243;-80
2021/12/21 06:46:40;;;;;;;47.77;15.30;;;-2.70;99.90;;;;;;5089233;28;20207;-81
2021/12/21 06:51:52;;;;;;;39.87;14.10;;;-2.70;99.90;;;;;;5100343;28;20573;-80
2021/12/21 06:54:19;;;;;;;34.97;14.50;;;-2.70;99.90;;;;;;5086627;28;20280;-80
2021/12/21 06:56:46;;;;;;;30.03;13.93;;;-2.70;99.90;;;;;;5100324;28;20204;-82
2021/12/21 06:59:13;;;;;;;39.83;13.87;;;-2.70;99.90;;;;;;5080844;28;20708;-79
2021/12/21 07:01:40;;;;;;;42.53;15.57;;;-2.70;99.90;;;;;;5103426;28;20606;-80
2021/12/21 07:04:09;;;;;;;47.47;15.77;;;-2.70;99.90;;;;;;5098643;28;20215;-81
2021/12/21 07:06:39;;;;;;;66.30;17.33;;;-2.70;99.90;;;;;;5101680;28;20206;-80
2021/12/21 07:11:57;;;;;;;48.03;15.47;;;-2.70;99.90;;;;;;5100673;28;20291;-80
2021/12/21 07:20:05;;;;;;;44.77;15.20;;;-2.70;99.90;;;;;;5104305;28;20218;-81
2021/12/21 07:22:32;;;;;;;62.93;16.33;;;-2.70;99.90;;;;;;5097141;28;20586;-81
2021/12/21 07:24:59;;;;;;;65.47;16.20;;;-2.60;99.90;;;;;;5088259;28;20659;-80
2021/12/21 07:27:26;;;;;;;36.80;14.30;;;-2.70;99.90;;;;;;5098927;28;20268;-81
2021/12/21 07:29:53;;;;;;;49.83;14.07;;;-2.60;99.90;;;;;;5099483;28;20211;-82
2021/12/21 07:32:21;;;;;;;35.67;13.17;;;-2.60;99.90;;;;;;5103461;28;20203;-81
2021/12/21 07:34:48;;;;;;;69.13;15.90;;;-2.60;99.90;;;;;;5102583;28;20208;-81
2021/12/21 07:37:18;;;;;;;54.07;14.63;;;-2.60;99.90;;;;;;5085283;28;20261;-81
2021/12/21 07:39:45;;;;;;;45.27;13.90;;;-2.60;99.90;;;;;;5095950;28;20196;-80
2021/12/21 07:42:17;;;;;;;72.37;14.33;;;-2.60;99.90;;;;;;5100645;28;20226;-82
2021/12/21 07:44:44;;;;;;;97.37;15.23;;;-2.60;99.90;;;;;;5102522;28;20199;-80
2021/12/21 07:47:11;;;;;;;49.87;13.07;;;-2.60;99.90;;;;;;5102431;28;20260;-80
2021/12/21 07:49:38;;;;;;;41.37;12.37;;;-2.60;99.90;;;;;;5099272;28;20855;-80
2021/12/21 07:52:07;;;;;;;62.47;14.47;;;-2.60;99.90;;;;;;5079789;28;20317;-81
2021/12/21 07:54:35;;;;;;;77.27;13.83;;;-2.70;99.90;;;;;;5093859;28;20769;-81
2021/12/21 07:57:09;;;;;;;28.97;12.63;;;-2.70;99.90;;;;;;5102534;28;20211;-79
2021/12/21 07:59:38;;;;;;;43.63;13.50;;;-2.70;99.90;;;;;;5082317;28;20231;-82
2021/12/21 08:02:13;;;;;;;30.90;12.97;;;-2.70;99.90;;;;;;5070796;28;20251;-81
2021/12/21 08:04:42;;;;;;;34.30;13.07;;;-2.70;99.90;;;;;;5066139;28;20219;-82
2021/12/21 08:07:13;;;;;;;39.57;13.30;;;-2.70;99.90;;;;;;5083365;28;20206;-80
2021/12/21 08:09:45;;;;;;;30.73;13.70;;;-2.70;99.90;;;;;;5086826;28;20747;-80
2021/12/21 08:12:15;;;;;;;54.60;14.57;;;-2.70;99.90;;;;;;5080215;28;20215;-81
2021/12/21 08:14:43;;;;;;;37.77;12.47;;;-2.70;99.90;;;;;;5061037;28;20235;-81
2021/12/21 08:17:24;;;;;;;40.40;14.43;;;-2.70;99.90;;;;;;5079088;28;20196;-79
2021/12/21 08:19:51;;;;;;;45.03;15.20;;;-2.70;99.90;;;;;;5083950;28;20216;-80
2021/12/21 08:22:18;;;;;;;58.33;17.13;;;-2.70;99.90;;;;;;5079039;28;20232;-78
2021/12/21 08:24:47;;;;;;;85.83;18.30;;;-2.70;99.90;;;;;;5058746;28;20206;-79
2021/12/21 08:27:14;;;;;;;45.33;16.37;;;-2.60;99.90;;;;;;5086039;28;20285;-79
2021/12/21 08:29:43;;;;;;;45.73;17.50;;;-2.60;99.90;;;;;;5069018;28;20224;-79
2021/12/21 08:32:10;;;;;;;39.43;16.37;;;-2.60;99.90;;;;;;5083974;28;20219;-79
2021/12/21 08:34:37;;;;;;;53.40;17.13;;;-2.60;99.90;;;;;;5083192;28;20231;-79
2021/12/21 08:37:05;;;;;;;37.50;16.53;;;-2.60;99.90;;;;;;5080489;28;20204;-79
2021/12/21 08:39:38;;;;;;;35.53;15.63;;;-2.50;99.90;;;;;;5079589;28;20243;-81
2021/12/21 08:42:08;;;;;;;31.87;16.17;;;-2.50;99.90;;;;;;5074720;28;20231;-81
2021/12/21 08:44:35;;;;;;;34.47;16.10;;;-2.50;99.90;;;;;;5066715;28;20239;-80
2021/12/21 08:47:02;;;;;;;43.20;15.67;;;-2.50;99.90;;;;;;5083240;28;20233;-80
2021/12/21 08:49:31;;;;;;;46.17;17.27;;;-2.50;99.90;;;;;;5081175;28;20219;-79
2021/12/21 08:51:57;;;;;;;40.50;17.27;;;-2.50;99.90;;;;;;5083476;28;20283;-79
2021/12/21 08:54:24;;;;;;;36.13;17.33;;;-2.40;99.90;;;;;;5085556;28;20234;-78
2021/12/21 08:56:51;;;;;;;32.60;15.73;;;-2.40;99.90;;;;;;5091609;28;20289;-77
2021/12/21 08:59:19;;;;;;;31.83;15.10;;;-2.40;99.90;;;;;;5098108;28;20387;-80
2021/12/21 09:01:46;;;;;;;32.57;14.97;;;-2.40;99.90;;;;;;5086125;28;20203;-79
2021/12/21 09:04:15;;;;;;;40.63;16.60;;;-2.40;99.90;;;;;;5100895;28;20564;-79
2021/12/21 09:06:42;;;;;;;37.10;16.90;;;-2.30;99.90;;;;;;5100867;28;20192;-79
2021/12/21 09:09:09;;;;;;;45.40;15.40;;;-2.30;99.90;;;;;;5086798;28;20204;-79
2021/12/21 09:11:38;;;;;;;34.40;16.60;;;-2.30;99.90;;;;;;5099015;28;20746;-80
2021/12/21 09:14:06;;;;;;;38.10;16.63;;;-2.20;99.90;;;;;;5084003;28;20621;-81
2021/12/21 09:16:33;;;;;;;46.43;16.67;;;-2.20;99.90;;;;;;5085262;28;20246;-81
2021/12/21 09:19:02;;;;;;;36.70;16.43;;;-2.20;99.90;;;;;;5101209;28;20206;-81
2021/12/21 09:21:31;;;;;;;38.00;16.40;;;-2.20;99.90;;;;;;5103378;28;20191;-80
2021/12/21 09:23:58;;;;;;;44.47;15.90;;;-2.20;99.90;;;;;;5103483;28;20223;-81
2021/12/21 09:26:27;;;;;;;35.30;16.97;;;-2.10;99.90;;;;;;5082518;28;20206;-82
2021/12/21 09:28:56;;;;;;;38.60;16.43;;;-2.10;99.90;;;;;;5092227;28;20202;-81
2021/12/21 09:31:23;;;;;;;38.73;17.00;;;-2.10;99.90;;;;;;5083964;28;20204;-80
2021/12/21 09:33:50;;;;;;;42.63;18.23;;;-2.10;99.90;;;;;;5101662;28;20200;-82
2021/12/21 09:36:17;;;;;;;46.67;18.50;;;-2.00;99.90;;;;;;5080655;28;20733;-80
2021/12/21 09:38:45;;;;;;;35.97;17.90;;;-2.00;99.90;;;;;;5101586;28;20703;-79
2021/12/21 09:41:14;;;;;;;43.60;18.20;;;-2.00;99.90;;;;;;5083622;28;20330;-83
2021/12/21 09:43:43;;;;;;;41.20;19.07;;;-1.90;99.90;;;;;;5083860;28;20239;-81
2021/12/21 09:46:11;;;;;;;42.93;19.07;;;-1.90;99.90;;;;;;5106001;28;20203;-81
2021/12/21 09:48:38;;;;;;;50.33;20.37;;;-1.90;99.90;;;;;;5092841;28;20208;-82
2021/12/21 09:51:06;;;;;;;45.07;19.73;;;-1.90;99.90;;;;;;5100341;28;20357;-80
2021/12/21 09:53:45;;;;;;;43.50;20.53;;;-1.80;99.90;;;;;;5110348;28;20214;-81
2021/12/21 09:56:12;;;;;;;47.70;20.67;;;-1.80;99.90;;;;;;5082995;28;20309;-77
2021/12/21 09:58:39;;;;;;;49.57;20.57;;;-1.80;99.90;;;;;;5081683;28;20402;-79
2021/12/21 10:01:08;;;;;;;50.43;24.37;;;-1.80;99.90;;;;;;5102537;28;20235;-78
2021/12/21 10:03:35;;;;;;;53.03;24.73;;;-1.70;99.90;;;;;;5117178;28;20286;-78
2021/12/21 10:06:12;;;;;;;57.23;27.70;;;-1.70;99.90;;;;;;5125750;28;20216;-77
2021/12/21 10:08:39;;;;;;;48.37;23.67;;;-1.70;99.90;;;;;;5119566;28;20192;-79
2021/12/21 10:11:21;;;;;;;51.67;25.90;;;-1.60;99.90;;;;;;5121304;28;20203;-79
2021/12/21 10:13:51;;;;;;;57.63;27.23;;;-1.50;99.90;;;;;;5122910;28;20560;-79
2021/12/21 10:16:21;;;;;;;56.30;27.73;;;-1.50;99.90;;;;;;5098627;28;20270;-78
2021/12/21 10:18:50;;;;;;;58.57;27.60;;;-1.50;99.90;;;;;;5085317;28;20211;-81
2021/12/21 10:21:17;;;;;;;60.37;27.97;;;-1.40;99.90;;;;;;5100077;28;20221;-79
2021/12/21 10:23:47;;;;;;;63.87;28.00;;;-1.40;99.90;;;;;;5102489;28;20223;-79
2021/12/21 10:26:23;;;;;;;55.80;28.70;;;-1.40;99.90;;;;;;5102386;28;20243;-81
2021/12/21 10:28:52;;;;;;;57.97;29.73;;;-1.30;99.90;;;;;;5095434;28;20291;-81
2021/12/21 10:31:28;;;;;;;64.30;32.33;;;-1.20;99.90;;;;;;5104654;28;20375;-80
2021/12/21 10:33:57;;;;;;;54.10;29.10;;;-1.30;99.90;;;;;;5104879;28;20203;-80
2021/12/21 10:36:29;;;;;;;47.43;27.47;;;-1.20;99.90;;;;;;5090144;28;20737;-81
2021/12/21 10:38:59;;;;;;;50.80;27.23;;;-1.10;99.90;;;;;;5104945;28;20291;-80
2021/12/21 10:41:37;;;;;;;57.53;27.13;;;-1.10;99.90;;;;;;5099238;28;20232;-80
2021/12/21 10:44:16;;;;;;;50.03;26.27;;;-1.00;99.90;;;;;;5105351;28;20302;-82
2021/12/21 10:46:46;;;;;;;57.23;28.53;;;-1.00;99.90;;;;;;5101270;28;20738;-80
2021/12/21 10:49:33;;;;;;;52.53;27.60;;;-0.90;99.90;;;;;;5097911;28;20243;-80
2021/12/21 10:52:07;;;;;;;51.57;28.10;;;-0.90;99.90;;;;;;5086367;28;20276;-80
2021/12/21 10:54:42;;;;;;;56.97;29.93;;;-0.80;99.90;;;;;;5099519;28;20202;-81
2021/12/21 10:57:15;;;;;;;56.90;28.73;;;-0.80;99.90;;;;;;5098875;28;20758;-81
2021/12/21 10:59:45;;;;;;;53.90;28.07;;;-0.80;99.90;;;;;;5100707;28;20234;-79
2021/12/21 11:02:16;;;;;;;67.07;31.37;;;-0.70;99.90;;;;;;5086201;28;20214;-78
2021/12/21 11:04:47;;;;;;;60.97;31.37;;;-0.70;99.90;;;;;;5101246;28;20227;-81
2021/12/21 11:10:34;;;;;;;74.33;33.93;;;-0.60;99.90;;;;;;5099289;28;20202;-80
2021/12/21 11:13:12;;;;;;;78.53;35.73;;;-0.60;99.90;;;;;;5084351;28;20660;-81
2021/12/21 11:15:52;;;;;;;74.60;37.40;;;-0.50;99.90;;;;;;5101287;28;20265;-79
2021/12/21 11:18:21;;;;;;;81.67;34.57;;;-0.50;99.90;;;;;;5099997;28;20239;-80
2021/12/21 11:20:52;;;;;;;71.73;35.07;;;-0.40;99.90;;;;;;5103215;28;20257;-79
2021/12/21 11:23:23;;;;;;;71.27;35.80;;;-0.40;99.90;;;;;;5100432;28;20274;-81
2021/12/21 11:25:54;;;;;;;76.20;37.30;;;-0.30;99.90;;;;;;5083325;28;20246;-79
2021/12/21 11:28:29;;;;;;;74.60;35.80;;;-0.30;99.90;;;;;;5100577;28;20209;-81
2021/12/21 11:31:01;;;;;;;76.07;38.13;;;-0.20;99.90;;;;;;5097941;28;20294;-81
2021/12/21 11:33:35;;;;;;;78.53;39.30;;;-0.20;99.90;;;;;;5099064;28;20213;-80
2021/12/21 11:38:51;;;;;;;78.07;38.37;;;-0.10;99.90;;;;;;5095713;28;20202;-80
2021/12/21 11:41:18;;;;;;;76.67;39.40;;;0.00;99.90;;;;;;5076366;28;20205;-81
2021/12/21 11:43:57;;;;;;;79.03;39.47;;;0.00;99.90;;;;;;5097507;28;20268;-80
2021/12/21 11:46:33;;;;;;;80.90;39.37;;;0.10;99.90;;;;;;5081936;28;20239;-81
2021/12/21 11:49:11;;;;;;;81.13;40.53;;;0.10;99.90;;;;;;5095854;28;20707;-79
2021/12/21 11:51:38;;;;;;;90.10;41.57;;;0.20;99.90;;;;;;5099613;28;20775;-81
2021/12/21 11:54:16;;;;;;;90.83;41.00;;;0.30;99.90;;;;;;5100845;28;20657;-82
2021/12/21 11:56:44;;;;;;;82.33;38.07;;;0.30;99.90;;;;;;5102871;28;20219;-82
2021/12/21 11:59:11;;;;;;;74.83;36.00;;;0.40;99.90;;;;;;5072858;28;20249;-81
2021/12/21 12:01:45;;;;;;;76.73;36.47;;;0.40;99.90;;;;;;5077670;28;20257;-81
2021/12/21 12:04:13;;;;;;;78.47;38.23;;;0.50;99.90;;;;;;5081387;28;20332;-80
2021/12/21 12:06:48;;;;;;;74.63;37.00;;;0.50;99.90;;;;;;5077498;28;20527;-81
2021/12/21 12:09:27;;;;;;;82.37;38.13;;;0.50;99.90;;;;;;5079852;28;20618;-81
2021/12/21 12:12:11;;;;;;;84.93;38.00;;;0.60;99.90;;;;;;5077564;28;20287;-82
2021/12/21 12:14:41;;;;;;;78.00;37.27;;;0.60;99.90;;;;;;5076325;28;20572;-83
2021/12/21 12:17:22;;;;;;;86.47;39.23;;;0.70;99.90;;;;;;5082124;28;20267;-84
2021/12/21 12:19:55;;;;;;;84.30;38.10;;;0.80;99.90;;;;;;5078583;28;20226;-84
2021/12/21 12:22:46;;;;;;;88.53;40.23;;;0.80;99.90;;;;;;5073666;28;20232;-85
2021/12/21 12:25:21;;;;;;;85.40;39.10;;;0.90;99.90;;;;;;5080461;28;20264;-83
2021/12/21 12:27:52;;;;;;;84.33;38.93;;;1.00;99.90;;;;;;5080453;28;20199;-84
2021/12/21 12:30:26;;;;;;;74.93;37.83;;;1.00;99.90;;;;;;5087600;28;20252;-84
2021/12/21 12:33:00;;;;;;;77.87;38.50;;;1.10;99.90;;;;;;5072046;28;20208;-83
2021/12/21 12:35:34;;;;;;;80.60;36.20;;;1.10;99.90;;;;;;5077051;28;20271;-83
2021/12/21 12:38:05;;;;;;;85.93;37.73;;;1.20;99.90;;;;;;5074899;28;20950;-83
2021/12/21 12:40:44;;;;;;;80.27;37.97;;;1.30;99.90;;;;;;5074183;28;20254;-83
2021/12/21 12:43:20;;;;;;;76.27;36.30;;;1.30;99.90;;;;;;5074599;28;20559;-80
2021/12/21 12:45:51;;;;;;;72.17;34.97;;;1.40;99.90;;;;;;5082092;28;20467;-80
2021/12/21 12:48:29;;;;;;;71.37;34.00;;;1.40;99.90;;;;;;5079261;28;20231;-83
2021/12/21 12:50:59;;;;;;;57.37;34.20;;;1.50;99.90;;;;;;5080456;28;20219;-81
2021/12/21 12:53:42;;;;;;;68.23;32.80;;;1.60;99.90;;;;;;5081016;28;20208;-81
2021/12/21 12:56:14;;;;;;;58.03;31.10;;;1.60;99.90;;;;;;5076046;28;20606;-82
2021/12/21 12:58:52;;;;;;;58.77;31.67;;;1.60;99.90;;;;;;5070604;28;20690;-80
2021/12/21 13:01:23;;;;;;;56.17;30.87;;;1.60;99.90;;;;;;5079304;28;20215;-81
2021/12/21 13:03:53;;;;;;;58.70;30.90;;;1.70;99.90;;;;;;5083259;28;20322;-80
2021/12/21 13:06:28;;;;;;;52.70;28.20;;;1.70;99.90;;;;;;5081356;28;20705;-80
2021/12/21 13:08:56;;;;;;;53.70;28.63;;;1.70;99.90;;;;;;5080039;28;20307;-81
2021/12/21 13:11:28;;;;;;;57.33;28.47;;;1.70;99.90;;;;;;5079877;28;20208;-81
2021/12/21 13:13:57;;;;;;;60.90;26.87;;;1.70;99.90;;;;;;5076181;28;20231;-82
2021/12/21 13:16:27;;;;;;;50.30;25.37;;;1.80;99.90;;;;;;5073877;28;20193;-81
2021/12/21 13:18:57;;;;;;;51.97;26.00;;;1.90;99.90;;;;;;5077584;28;20258;-80
2021/12/21 13:21:29;;;;;;;51.17;23.67;;;1.80;99.90;;;;;;5081456;28;20196;-79
2021/12/21 13:24:31;;;;;;;49.60;24.33;;;1.80;99.90;;;;;;5077741;28;20257;-79
2021/12/21 13:27:00;;;;;;;49.60;24.60;;;1.90;99.90;;;;;;5076698;28;20212;-79
2021/12/21 13:29:32;;;;;;;52.80;25.50;;;1.90;99.90;;;;;;5078792;28;20235;-80
2021/12/21 13:32:06;;;;;;;48.90;26.07;;;1.90;99.90;;;;;;5082966;28;20330;-79
2021/12/21 13:34:33;;;;;;;55.87;27.20;;;2.00;99.90;;;;;;5081307;28;20292;-78
2021/12/21 13:37:07;;;;;;;50.80;25.97;;;2.00;99.90;;;;;;5083027;28;20585;-78
2021/12/21 13:39:39;;;;;;;50.13;23.93;;;2.00;99.90;;;;;;5072583;28;20291;-78
2021/12/21 13:42:07;;;;;;;46.97;23.23;;;2.00;99.90;;;;;;5080534;28;20214;-78